sensor_id;sensor_type;location;lat;lon;timestamp;temperature;humidity
22996;DHT22;11664;49.774;8.650;2023-04-24T00:01:12;12.20;99.90
22996;DHT22;11664;49.774;8.650;2023-04-24T00:03:38;12.10;99.90
22996;DHT22;11664;49.774;8.650;2023-04-24T00:06:04;12.20;99.90
22996;DHT22;11664;49.774;8.650;2023-04-24T00:08:32;12.10;99.90
22996;DHT22;11664;49.774;8.650;2023-04-24T00:10:57;12.10;99.90
22996;DHT22;11664;49.774;8.650;2023-04-24T00:13:23;12.10;99.90
22996;DHT22;11664;49.774;8.650;2023-04-24T00:15:48;12.20;99.90
22996;DHT22;11664;49.774;8.650;2023-04-24T00:18:14;12.20;99.90
22996;DHT22;11664;49.774;8.650;2023-04-24T00:20:40;12.20;99.90
22996;DHT22;11664;49.774;8.650;2023-04-24T00:23:05;12.20;99.90
22996;DHT22;11664;49.774;8.650;2023-04-24T00:25:31;12.20;99.90
22996;DHT22;11664;49.774;8.650;2023-04-24T00:27:56;12.20;99.90
22996;DHT22;11664;49.774;8.650;2023-04-24T00:30:22;12.20;99.90
22996;DHT22;11664;49.774;8.650;2023-04-24T00:32:47;12.20;99.90
22996;DHT22;11664;49.774;8.650;2023-04-24T00:35:13;12.20;99.90
22996;DHT22;11664;49.774;8.650;2023-04-24T00:37:39;12.20;99.90
22996;DHT22;11664;49.774;8.650;2023-04-24T00:40:06;12.20;99.90
22996;DHT22;11664;49.774;8.650;2023-04-24T00:42:32;12.30;99.90
22996;DHT22;11664;49.774;8.650;2023-04-24T00:44:58;12.30;99.90
22996;DHT22;11664;49.774;8.650;2023-04-24T00:47:25;12.30;99.90
22996;DHT22;11664;49.774;8.650;2023-04-24T00:49:50;12.30;99.90
22996;DHT22;11664;49.774;8.650;2023-04-24T00:52:16;12.30;99.90
22996;DHT22;11664;49.774;8.650;2023-04-24T00:54:44;12.30;99.90
22996;DHT22;11664;49.774;8.650;2023-04-24T00:57:10;12.30;99.90
22996;DHT22;11664;49.774;8.650;2023-04-24T00:59:36;12.30;99.90
22996;DHT22;11664;49.774;8.650;2023-04-24T01:02:02;12.30;99.90
22996;DHT22;11664;49.774;8.650;2023-04-24T01:04:28;12.30;99.90
22996;DHT22;11664;49.774;8.650;2023-04-24T01:06:54;12.40;99.90
22996;DHT22;11664;49.774;8.650;2023-04-24T01:09:22;12.30;99.90
22996;DHT22;11664;49.774;8.650;2023-04-24T01:11:48;12.30;99.90
22996;DHT22;11664;49.774;8.650;2023-04-24T01:14:14;12.30;99.90
22996;DHT22;11664;49.774;8.650;2023-04-24T01:16:40;12.20;99.90
22996;DHT22;11664;49.774;8.650;2023-04-24T01:19:07;12.20;99.90
22996;DHT22;11664;49.774;8.650;2023-04-24T01:21:36;12.20;99.90
22996;DHT22;11664;49.774;8.650;2023-04-24T01:24:02;12.10;99.90
22996;DHT22;11664;49.774;8.650;2023-04-24T01:26:28;12.20;99.90
22996;DHT22;11664;49.774;8.650;2023-04-24T01:28:53;12.10;99.90
22996;DHT22;11664;49.774;8.650;2023-04-24T01:31:19;12.10;99.90
22996;DHT22;11664;49.774;8.650;2023-04-24T01:37:07;12.10;99.90
22996;DHT22;11664;49.774;8.650;2023-04-24T01:39:33;12.10;99.90
22996;DHT22;11664;49.774;8.650;2023-04-24T01:41:59;12.20;99.90
22996;DHT22;11664;49.774;8.650;2023-04-24T01:44:26;12.20;99.90
22996;DHT22;11664;49.774;8.650;2023-04-24T01:46:51;12.30;99.90
22996;DHT22;11664;49.774;8.650;2023-04-24T01:49:19;12.20;99.90
22996;DHT22;11664;49.774;8.650;2023-04-24T01:51:45;12.30;99.90
22996;DHT22;11664;49.774;8.650;2023-04-24T01:54:10;12.40;99.90
22996;DHT22;11664;49.774;8.650;2023-04-24T01:56:36;12.40;99.90
22996;DHT22;11664;49.774;8.650;2023-04-24T01:59:04;12.40;99.90
22996;DHT22;11664;49.774;8.650;2023-04-24T02:01:34;12.40;99.90
22996;DHT22;11664;49.774;8.650;2023-04-24T02:04:04;12.40;99.90
22996;DHT22;11664;49.774;8.650;2023-04-24T02:06:29;12.40;99.90
22996;DHT22;11664;49.774;8.650;2023-04-24T02:08:57;12.40;99.90
22996;DHT22;11664;49.774;8.650;2023-04-24T02:11:23;12.40;99.90
22996;DHT22;11664;49.774;8.650;2023-04-24T02:13:48;12.40;99.90
22996;DHT22;11664;49.774;8.650;2023-04-24T02:16:14;12.40;99.90
22996;DHT22;11664;49.774;8.650;2023-04-24T02:18:39;12.40;99.90
22996;DHT22;11664;49.774;8.650;2023-04-24T02:21:05;12.40;99.90
22996;DHT22;11664;49.774;8.650;2023-04-24T02:23:31;12.40;99.90
22996;DHT22;11664;49.774;8.650;2023-04-24T02:25:56;12.40;99.90
22996;DHT22;11664;49.774;8.650;2023-04-24T02:28:21;12.40;99.90
22996;DHT22;11664;49.774;8.650;2023-04-24T02:30:47;12.40;99.90
22996;DHT22;11664;49.774;8.650;2023-04-24T02:33:12;12.40;99.90
22996;DHT22;11664;49.774;8.650;2023-04-24T02:35:38;12.40;99.90
22996;DHT22;11664;49.774;8.650;2023-04-24T02:38:04;12.40;99.90
22996;DHT22;11664;49.774;8.650;2023-04-24T02:40:29;12.30;99.90
22996;DHT22;11664;49.774;8.650;2023-04-24T02:42:55;12.20;99.90
22996;DHT22;11664;49.774;8.650;2023-04-24T02:45:21;12.10;99.90
22996;DHT22;11664;49.774;8.650;2023-04-24T02:47:46;12.10;99.90
22996;DHT22;11664;49.774;8.650;2023-04-24T02:50:12;12.00;99.90
22996;DHT22;11664;49.774;8.650;2023-04-24T02:52:37;11.90;99.90
22996;DHT22;11664;49.774;8.650;2023-04-24T02:55:03;11.90;99.90
22996;DHT22;11664;49.774;8.650;2023-04-24T02:57:28;11.80;99.90
22996;DHT22;11664;49.774;8.650;2023-04-24T02:59:54;11.80;99.90
22996;DHT22;11664;49.774;8.650;2023-04-24T03:02:20;11.80;99.90
22996;DHT22;11664;49.774;8.650;2023-04-24T03:04:46;11.70;99.90
22996;DHT22;11664;49.774;8.650;2023-04-24T03:07:13;11.70;99.90
22996;DHT22;11664;49.774;8.650;2023-04-24T03:09:40;11.60;99.90
22996;DHT22;11664;49.774;8.650;2023-04-24T03:12:05;11.60;99.90
22996;DHT22;11664;49.774;8.650;2023-04-24T03:14:31;11.50;99.90
22996;DHT22;11664;49.774;8.650;2023-04-24T03:16:56;11.50;99.90
22996;DHT22;11664;49.774;8.650;2023-04-24T03:19:22;11.50;99.90
22996;DHT22;11664;49.774;8.650;2023-04-24T03:21:48;11.40;99.90
22996;DHT22;11664;49.774;8.650;2023-04-24T03:24:13;11.40;99.90
22996;DHT22;11664;49.774;8.650;2023-04-24T03:26:39;11.40;99.90
22996;DHT22;11664;49.774;8.650;2023-04-24T03:29:04;11.40;99.90
22996;DHT22;11664;49.774;8.650;2023-04-24T03:31:30;11.30;99.90
22996;DHT22;11664;49.774;8.650;2023-04-24T03:33:55;11.30;99.90
22996;DHT22;11664;49.774;8.650;2023-04-24T03:36:21;11.20;99.90
22996;DHT22;11664;49.774;8.650;2023-04-24T03:38:46;11.20;99.90
22996;DHT22;11664;49.774;8.650;2023-04-24T03:41:12;11.10;99.90
22996;DHT22;11664;49.774;8.650;2023-04-24T03:43:37;11.10;99.90
22996;DHT22;11664;49.774;8.650;2023-04-24T03:46:03;11.10;99.90
22996;DHT22;11664;49.774;8.650;2023-04-24T03:48:29;11.00;99.90
22996;DHT22;11664;49.774;8.650;2023-04-24T03:50:54;11.00;99.90
22996;DHT22;11664;49.774;8.650;2023-04-24T03:53:20;11.00;99.90
22996;DHT22;11664;49.774;8.650;2023-04-24T03:55:46;11.00;99.90
22996;DHT22;11664;49.774;8.650;2023-04-24T03:58:11;10.90;99.90
22996;DHT22;11664;49.774;8.650;2023-04-24T04:00:38;10.90;99.90
22996;DHT22;11664;49.774;8.650;2023-04-24T04:03:05;10.90;99.90
22996;DHT22;11664;49.774;8.650;2023-04-24T04:05:31;10.80;99.90
22996;DHT22;11664;49.774;8.650;2023-04-24T04:07:56;10.80;99.90
22996;DHT22;11664;49.774;8.650;2023-04-24T04:10:22;10.80;99.90
22996;DHT22;11664;49.774;8.650;2023-04-24T04:12:48;10.70;99.90
22996;DHT22;11664;49.774;8.650;2023-04-24T04:15:13;10.60;99.90
22996;DHT22;11664;49.774;8.650;2023-04-24T04:17:39;10.60;99.90
22996;DHT22;11664;49.774;8.650;2023-04-24T04:20:05;10.50;99.90
22996;DHT22;11664;49.774;8.650;2023-04-24T04:22:37;10.50;99.90
22996;DHT22;11664;49.774;8.650;2023-04-24T04:25:03;10.40;99.90
22996;DHT22;11664;49.774;8.650;2023-04-24T04:27:30;10.40;99.90
22996;DHT22;11664;49.774;8.650;2023-04-24T04:29:58;10.30;99.90
22996;DHT22;11664;49.774;8.650;2023-04-24T04:32:26;10.30;99.90
22996;DHT22;11664;49.774;8.650;2023-04-24T04:34:52;10.20;99.90
22996;DHT22;11664;49.774;8.650;2023-04-24T04:37:18;10.20;99.90
22996;DHT22;11664;49.774;8.650;2023-04-24T04:39:44;10.20;99.90
22996;DHT22;11664;49.774;8.650;2023-04-24T04:42:09;10.10;99.90
22996;DHT22;11664;49.774;8.650;2023-04-24T04:44:35;10.10;99.90
22996;DHT22;11664;49.774;8.650;2023-04-24T04:47:01;10.00;99.90
22996;DHT22;11664;49.774;8.650;2023-04-24T04:49:31;10.00;99.90
22996;DHT22;11664;49.774;8.650;2023-04-24T04:51:56;10.00;99.90
22996;DHT22;11664;49.774;8.650;2023-04-24T04:54:22;10.00;99.90
22996;DHT22;11664;49.774;8.650;2023-04-24T04:56:50;10.00;99.90
22996;DHT22;11664;49.774;8.650;2023-04-24T04:59:15;10.00;99.90
22996;DHT22;11664;49.774;8.650;2023-04-24T05:01:41;10.00;99.90
22996;DHT22;11664;49.774;8.650;2023-04-24T05:04:06;10.10;99.90
22996;DHT22;11664;49.774;8.650;2023-04-24T05:06:32;10.10;99.90
22996;DHT22;11664;49.774;8.650;2023-04-24T05:08:57;10.20;99.90
22996;DHT22;11664;49.774;8.650;2023-04-24T05:11:23;10.10;99.90
22996;DHT22;11664;49.774;8.650;2023-04-24T05:13:48;10.20;99.90
22996;DHT22;11664;49.774;8.650;2023-04-24T05:16:14;10.20;99.90
22996;DHT22;11664;49.774;8.650;2023-04-24T05:18:39;10.30;99.90
22996;DHT22;11664;49.774;8.650;2023-04-24T05:21:05;10.40;99.90
22996;DHT22;11664;49.774;8.650;2023-04-24T05:23:31;10.40;99.90
22996;DHT22;11664;49.774;8.650;2023-04-24T05:25:56;10.40;99.90
22996;DHT22;11664;49.774;8.650;2023-04-24T05:28:22;10.40;99.90
22996;DHT22;11664;49.774;8.650;2023-04-24T05:30:48;10.40;99.90
22996;DHT22;11664;49.774;8.650;2023-04-24T05:33:13;10.40;99.90
22996;DHT22;11664;49.774;8.650;2023-04-24T05:35:40;10.40;99.90
22996;DHT22;11664;49.774;8.650;2023-04-24T05:38:11;10.50;99.90
22996;DHT22;11664;49.774;8.650;2023-04-24T05:40:36;10.50;99.90
22996;DHT22;11664;49.774;8.650;2023-04-24T05:43:02;10.60;99.90
22996;DHT22;11664;49.774;8.650;2023-04-24T05:45:27;10.60;99.90
22996;DHT22;11664;49.774;8.650;2023-04-24T05:47:53;10.60;99.90
22996;DHT22;11664;49.774;8.650;2023-04-24T05:50:19;10.50;99.90
22996;DHT22;11664;49.774;8.650;2023-04-24T05:52:45;10.50;99.90
22996;DHT22;11664;49.774;8.650;2023-04-24T05:55:10;10.50;99.90
22996;DHT22;11664;49.774;8.650;2023-04-24T05:57:36;10.50;99.90
22996;DHT22;11664;49.774;8.650;2023-04-24T06:00:02;10.50;99.90
22996;DHT22;11664;49.774;8.650;2023-04-24T06:02:28;10.50;99.90
22996;DHT22;11664;49.774;8.650;2023-04-24T06:04:57;10.50;99.90
22996;DHT22;11664;49.774;8.650;2023-04-24T06:07:24;10.50;99.90
22996;DHT22;11664;49.774;8.650;2023-04-24T06:09:51;10.50;99.90
22996;DHT22;11664;49.774;8.650;2023-04-24T06:12:17;10.50;99.90
22996;DHT22;11664;49.774;8.650;2023-04-24T06:14:43;10.50;99.90
22996;DHT22;11664;49.774;8.650;2023-04-24T06:17:08;10.50;99.90
22996;DHT22;11664;49.774;8.650;2023-04-24T06:19:34;10.60;99.90
22996;DHT22;11664;49.774;8.650;2023-04-24T06:21:59;10.50;99.90
22996;DHT22;11664;49.774;8.650;2023-04-24T06:24:28;10.50;99.90
22996;DHT22;11664;49.774;8.650;2023-04-24T06:26:54;10.50;99.90
22996;DHT22;11664;49.774;8.650;2023-04-24T06:29:19;10.50;99.90
22996;DHT22;11664;49.774;8.650;2023-04-24T06:31:45;10.40;99.90
22996;DHT22;11664;49.774;8.650;2023-04-24T06:34:10;10.40;99.90
22996;DHT22;11664;49.774;8.650;2023-04-24T06:36:36;10.40;99.90
22996;DHT22;11664;49.774;8.650;2023-04-24T06:39:01;10.40;99.90
22996;DHT22;11664;49.774;8.650;2023-04-24T06:41:28;10.40;99.90
22996;DHT22;11664;49.774;8.650;2023-04-24T06:43:54;10.40;99.90
22996;DHT22;11664;49.774;8.650;2023-04-24T06:46:20;10.50;99.90
22996;DHT22;11664;49.774;8.650;2023-04-24T06:48:49;10.60;99.90
22996;DHT22;11664;49.774;8.650;2023-04-24T06:51:14;10.60;99.90
22996;DHT22;11664;49.774;8.650;2023-04-24T06:53:40;10.60;99.90
22996;DHT22;11664;49.774;8.650;2023-04-24T06:56:06;10.60;99.90
22996;DHT22;11664;49.774;8.650;2023-04-24T06:58:31;10.50;99.90
22996;DHT22;11664;49.774;8.650;2023-04-24T07:00:57;10.50;99.90
22996;DHT22;11664;49.774;8.650;2023-04-24T07:03:22;10.60;99.90
22996;DHT22;11664;49.774;8.650;2023-04-24T07:05:48;10.60;99.90
22996;DHT22;11664;49.774;8.650;2023-04-24T07:08:14;10.60;99.90
22996;DHT22;11664;49.774;8.650;2023-04-24T07:10:42;10.60;99.90
22996;DHT22;11664;49.774;8.650;2023-04-24T07:13:08;10.80;99.90
22996;DHT22;11664;49.774;8.650;2023-04-24T07:15:33;10.90;99.90
22996;DHT22;11664;49.774;8.650;2023-04-24T07:17:59;11.10;99.90
22996;DHT22;11664;49.774;8.650;2023-04-24T07:20:25;11.20;99.90
22996;DHT22;11664;49.774;8.650;2023-04-24T07:22:51;11.20;99.90
22996;DHT22;11664;49.774;8.650;2023-04-24T07:25:19;11.20;99.90
22996;DHT22;11664;49.774;8.650;2023-04-24T07:27:44;11.30;99.90
22996;DHT22;11664;49.774;8.650;2023-04-24T07:30:10;11.40;99.90
22996;DHT22;11664;49.774;8.650;2023-04-24T07:32:36;11.50;99.90
22996;DHT22;11664;49.774;8.650;2023-04-24T07:35:01;11.50;99.90
22996;DHT22;11664;49.774;8.650;2023-04-24T07:37:28;11.50;99.90
22996;DHT22;11664;49.774;8.650;2023-04-24T07:39:54;11.60;99.90
22996;DHT22;11664;49.774;8.650;2023-04-24T07:42:20;11.50;99.90
22996;DHT22;11664;49.774;8.650;2023-04-24T07:44:45;11.50;99.90
22996;DHT22;11664;49.774;8.650;2023-04-24T07:47:13;11.60;99.90
22996;DHT22;11664;49.774;8.650;2023-04-24T07:49:41;11.60;99.90
22996;DHT22;11664;49.774;8.650;2023-04-24T07:52:07;11.80;99.90
22996;DHT22;11664;49.774;8.650;2023-04-24T07:54:32;11.80;99.90
22996;DHT22;11664;49.774;8.650;2023-04-24T07:56:58;11.90;99.90
22996;DHT22;11664;49.774;8.650;2023-04-24T07:59:24;12.00;99.90
22996;DHT22;11664;49.774;8.650;2023-04-24T08:01:49;12.00;99.90
22996;DHT22;11664;49.774;8.650;2023-04-24T08:04:15;12.00;99.90
22996;DHT22;11664;49.774;8.650;2023-04-24T08:06:40;12.00;99.90
22996;DHT22;11664;49.774;8.650;2023-04-24T08:09:06;12.00;99.90
22996;DHT22;11664;49.774;8.650;2023-04-24T08:11:31;12.00;99.90
22996;DHT22;11664;49.774;8.650;2023-04-24T08:13:58;11.90;99.90
22996;DHT22;11664;49.774;8.650;2023-04-24T08:16:23;11.80;99.90
22996;DHT22;11664;49.774;8.650;2023-04-24T08:18:49;11.80;99.90
22996;DHT22;11664;49.774;8.650;2023-04-24T08:21:15;11.80;99.90
22996;DHT22;11664;49.774;8.650;2023-04-24T08:23:44;12.00;99.90
22996;DHT22;11664;49.774;8.650;2023-04-24T08:26:09;12.10;99.90
22996;DHT22;11664;49.774;8.650;2023-04-24T08:28:36;12.20;99.90
22996;DHT22;11664;49.774;8.650;2023-04-24T08:31:02;12.20;99.90
22996;DHT22;11664;49.774;8.650;2023-04-24T08:33:27;12.30;99.90
22996;DHT22;11664;49.774;8.650;2023-04-24T08:36:02;12.40;99.90
22996;DHT22;11664;49.774;8.650;2023-04-24T08:38:28;12.40;99.90
22996;DHT22;11664;49.774;8.650;2023-04-24T08:40:54;12.40;99.90
22996;DHT22;11664;49.774;8.650;2023-04-24T08:43:25;12.40;99.90
22996;DHT22;11664;49.774;8.650;2023-04-24T08:45:51;12.30;99.90
22996;DHT22;11664;49.774;8.650;2023-04-24T08:48:18;12.30;99.90
22996;DHT22;11664;49.774;8.650;2023-04-24T08:50:43;12.60;99.90
22996;DHT22;11664;49.774;8.650;2023-04-24T08:53:10;12.90;99.90
22996;DHT22;11664;49.774;8.650;2023-04-24T08:55:37;13.10;99.90
22996;DHT22;11664;49.774;8.650;2023-04-24T08:58:03;13.00;99.90
22996;DHT22;11664;49.774;8.650;2023-04-24T09:00:29;13.10;99.90
22996;DHT22;11664;49.774;8.650;2023-04-24T09:02:55;13.30;99.90
22996;DHT22;11664;49.774;8.650;2023-04-24T09:05:22;13.30;99.90
22996;DHT22;11664;49.774;8.650;2023-04-24T09:07:56;13.30;99.90
22996;DHT22;11664;49.774;8.650;2023-04-24T09:10:23;13.10;99.90
22996;DHT22;11664;49.774;8.650;2023-04-24T09:12:50;13.00;99.90
22996;DHT22;11664;49.774;8.650;2023-04-24T09:15:16;12.80;99.90
22996;DHT22;11664;49.774;8.650;2023-04-24T09:17:43;12.70;99.90
22996;DHT22;11664;49.774;8.650;2023-04-24T09:20:09;12.60;99.90
22996;DHT22;11664;49.774;8.650;2023-04-24T09:22:34;12.50;99.90
22996;DHT22;11664;49.774;8.650;2023-04-24T09:25:05;12.50;99.90
22996;DHT22;11664;49.774;8.650;2023-04-24T09:27:31;12.40;99.90
22996;DHT22;11664;49.774;8.650;2023-04-24T09:29:57;12.50;99.90
22996;DHT22;11664;49.774;8.650;2023-04-24T09:32:23;12.50;99.90
22996;DHT22;11664;49.774;8.650;2023-04-24T09:35:13;12.60;99.90
22996;DHT22;11664;49.774;8.650;2023-04-24T09:37:46;12.60;99.90
22996;DHT22;11664;49.774;8.650;2023-04-24T09:40:18;12.50;99.90
22996;DHT22;11664;49.774;8.650;2023-04-24T09:42:55;12.30;99.90
22996;DHT22;11664;49.774;8.650;2023-04-24T09:45:22;12.30;99.90
22996;DHT22;11664;49.774;8.650;2023-04-24T09:47:52;12.40;99.90
22996;DHT22;11664;49.774;8.650;2023-04-24T09:50:21;12.30;99.90
22996;DHT22;11664;49.774;8.650;2023-04-24T09:52:58;12.30;99.90
22996;DHT22;11664;49.774;8.650;2023-04-24T09:55:24;12.20;99.90
22996;DHT22;11664;49.774;8.650;2023-04-24T09:57:52;12.20;99.90
22996;DHT22;11664;49.774;8.650;2023-04-24T10:00:29;12.30;99.90
22996;DHT22;11664;49.774;8.650;2023-04-24T10:02:59;12.30;99.90
22996;DHT22;11664;49.774;8.650;2023-04-24T10:05:35;12.20;99.90
22996;DHT22;11664;49.774;8.650;2023-04-24T10:08:04;12.20;99.90
22996;DHT22;11664;49.774;8.650;2023-04-24T10:10:31;12.20;99.90
22996;DHT22;11664;49.774;8.650;2023-04-24T10:12:57;12.30;99.90
22996;DHT22;11664;49.774;8.650;2023-04-24T10:15:24;12.40;99.90
22996;DHT22;11664;49.774;8.650;2023-04-24T10:17:51;12.60;99.90
22996;DHT22;11664;49.774;8.650;2023-04-24T10:20:22;12.80;99.90
22996;DHT22;11664;49.774;8.650;2023-04-24T10:22:49;12.80;99.90
22996;DHT22;11664;49.774;8.650;2023-04-24T10:25:17;12.90;99.90
22996;DHT22;11664;49.774;8.650;2023-04-24T10:27:45;12.80;99.90
22996;DHT22;11664;49.774;8.650;2023-04-24T10:30:12;12.70;99.90
22996;DHT22;11664;49.774;8.650;2023-04-24T10:32:38;12.60;99.90
22996;DHT22;11664;49.774;8.650;2023-04-24T10:35:04;12.50;99.90
22996;DHT22;11664;49.774;8.650;2023-04-24T10:37:36;12.40;99.90
22996;DHT22;11664;49.774;8.650;2023-04-24T10:40:02;12.40;99.90
22996;DHT22;11664;49.774;8.650;2023-04-24T10:42:28;12.20;99.90
22996;DHT22;11664;49.774;8.650;2023-04-24T10:44:54;12.20;99.90
22996;DHT22;11664;49.774;8.650;2023-04-24T10:47:21;12.20;99.90
22996;DHT22;11664;49.774;8.650;2023-04-24T10:49:50;12.20;99.90
22996;DHT22;11664;49.774;8.650;2023-04-24T10:52:16;12.20;99.90
22996;DHT22;11664;49.774;8.650;2023-04-24T10:54:44;12.30;99.90
22996;DHT22;11664;49.774;8.650;2023-04-24T10:59:46;12.30;99.90
22996;DHT22;11664;49.774;8.650;2023-04-24T11:02:15;12.30;99.90
22996;DHT22;11664;49.774;8.650;2023-04-24T11:04:41;12.50;99.90
22996;DHT22;11664;49.774;8.650;2023-04-24T11:07:09;12.60;99.90
22996;DHT22;11664;49.774;8.650;2023-04-24T11:09:35;12.80;99.90
22996;DHT22;11664;49.774;8.650;2023-04-24T11:12:09;13.00;99.90
22996;DHT22;11664;49.774;8.650;2023-04-24T11:17:34;13.00;99.90
22996;DHT22;11664;49.774;8.650;2023-04-24T11:20:07;12.90;99.90
22996;DHT22;11664;49.774;8.650;2023-04-24T11:22:35;12.80;99.90
22996;DHT22;11664;49.774;8.650;2023-04-24T11:25:02;12.70;99.90
22996;DHT22;11664;49.774;8.650;2023-04-24T11:27:30;12.60;99.90
22996;DHT22;11664;49.774;8.650;2023-04-24T11:32:38;12.50;99.90
22996;DHT22;11664;49.774;8.650;2023-04-24T11:35:07;12.50;99.90
22996;DHT22;11664;49.774;8.650;2023-04-24T11:40:00;12.40;99.90
22996;DHT22;11664;49.774;8.650;2023-04-24T11:42:26;12.40;99.90
22996;DHT22;11664;49.774;8.650;2023-04-24T11:44:53;12.50;99.90
22996;DHT22;11664;49.774;8.650;2023-04-24T11:47:30;12.50;99.90
22996;DHT22;11664;49.774;8.650;2023-04-24T11:49:56;12.60;99.90
22996;DHT22;11664;49.774;8.650;2023-04-24T11:52:22;12.60;99.90
22996;DHT22;11664;49.774;8.650;2023-04-24T11:54:48;12.60;99.90
22996;DHT22;11664;49.774;8.650;2023-04-24T11:57:14;12.60;99.90
22996;DHT22;11664;49.774;8.650;2023-04-24T11:59:40;12.70;99.90
22996;DHT22;11664;49.774;8.650;2023-04-24T12:02:05;12.90;99.90
22996;DHT22;11664;49.774;8.650;2023-04-24T12:04:41;13.00;99.90
22996;DHT22;11664;49.774;8.650;2023-04-24T12:07:07;13.10;99.90
22996;DHT22;11664;49.774;8.650;2023-04-24T12:09:48;13.10;99.90
22996;DHT22;11664;49.774;8.650;2023-04-24T12:12:16;12.90;99.90
22996;DHT22;11664;49.774;8.650;2023-04-24T12:14:48;12.80;99.90
22996;DHT22;11664;49.774;8.650;2023-04-24T12:17:14;12.50;99.90
22996;DHT22;11664;49.774;8.650;2023-04-24T12:19:46;12.30;99.90
22996;DHT22;11664;49.774;8.650;2023-04-24T12:22:12;11.90;99.90
22996;DHT22;11664;49.774;8.650;2023-04-24T12:25:00;11.50;99.90
22996;DHT22;11664;49.774;8.650;2023-04-24T12:27:28;11.30;99.90
22996;DHT22;11664;49.774;8.650;2023-04-24T12:29:56;11.30;99.90
22996;DHT22;11664;49.774;8.650;2023-04-24T12:32:22;11.30;99.90
22996;DHT22;11664;49.774;8.650;2023-04-24T12:34:49;11.30;99.90
22996;DHT22;11664;49.774;8.650;2023-04-24T12:37:16;11.30;99.90
22996;DHT22;11664;49.774;8.650;2023-04-24T12:40:05;11.30;99.90
22996;DHT22;11664;49.774;8.650;2023-04-24T12:42:31;11.30;99.90
22996;DHT22;11664;49.774;8.650;2023-04-24T12:45:02;11.40;99.90
22996;DHT22;11664;49.774;8.650;2023-04-24T12:47:29;11.60;99.90
22996;DHT22;11664;49.774;8.650;2023-04-24T12:49:54;11.80;99.90
22996;DHT22;11664;49.774;8.650;2023-04-24T12:52:24;12.00;99.90
22996;DHT22;11664;49.774;8.650;2023-04-24T12:54:52;12.30;99.90
22996;DHT22;11664;49.774;8.650;2023-04-24T12:57:18;12.60;99.90
22996;DHT22;11664;49.774;8.650;2023-04-24T12:59:44;12.80;99.90
22996;DHT22;11664;49.774;8.650;2023-04-24T13:02:10;13.00;99.90
22996;DHT22;11664;49.774;8.650;2023-04-24T13:04:36;13.20;99.90
22996;DHT22;11664;49.774;8.650;2023-04-24T13:07:02;13.40;99.90
22996;DHT22;11664;49.774;8.650;2023-04-24T13:09:27;13.30;99.90
22996;DHT22;11664;49.774;8.650;2023-04-24T13:11:54;13.20;99.90
22996;DHT22;11664;49.774;8.650;2023-04-24T13:14:19;13.30;99.90
22996;DHT22;11664;49.774;8.650;2023-04-24T13:16:45;13.20;99.90
22996;DHT22;11664;49.774;8.650;2023-04-24T13:19:10;13.20;99.90
22996;DHT22;11664;49.774;8.650;2023-04-24T13:21:36;13.40;99.90
22996;DHT22;11664;49.774;8.650;2023-04-24T13:24:01;14.20;99.90
22996;DHT22;11664;49.774;8.650;2023-04-24T13:26:29;14.30;99.90
22996;DHT22;11664;49.774;8.650;2023-04-24T13:28:54;14.30;99.90
22996;DHT22;11664;49.774;8.650;2023-04-24T13:31:20;14.10;99.90
22996;DHT22;11664;49.774;8.650;2023-04-24T13:33:46;14.00;99.90
22996;DHT22;11664;49.774;8.650;2023-04-24T13:36:11;14.00;99.90
22996;DHT22;11664;49.774;8.650;2023-04-24T13:38:37;14.10;99.90
22996;DHT22;11664;49.774;8.650;2023-04-24T13:41:02;14.10;99.90
22996;DHT22;11664;49.774;8.650;2023-04-24T13:43:28;14.00;99.90
22996;DHT22;11664;49.774;8.650;2023-04-24T13:45:53;14.00;99.90
22996;DHT22;11664;49.774;8.650;2023-04-24T13:48:19;14.00;99.90
22996;DHT22;11664;49.774;8.650;2023-04-24T13:50:44;14.10;99.90
22996;DHT22;11664;49.774;8.650;2023-04-24T13:53:13;14.60;99.90
22996;DHT22;11664;49.774;8.650;2023-04-24T13:55:39;15.00;99.90
22996;DHT22;11664;49.774;8.650;2023-04-24T13:58:04;14.90;99.90
22996;DHT22;11664;49.774;8.650;2023-04-24T14:00:31;14.90;99.90
22996;DHT22;11664;49.774;8.650;2023-04-24T14:02:56;14.70;99.90
22996;DHT22;11664;49.774;8.650;2023-04-24T14:05:22;14.60;99.90
22996;DHT22;11664;49.774;8.650;2023-04-24T14:07:47;14.50;99.90
22996;DHT22;11664;49.774;8.650;2023-04-24T14:10:13;14.60;99.90
22996;DHT22;11664;49.774;8.650;2023-04-24T14:12:38;14.60;99.90
22996;DHT22;11664;49.774;8.650;2023-04-24T14:15:05;14.60;99.90
22996;DHT22;11664;49.774;8.650;2023-04-24T14:17:31;14.60;99.90
22996;DHT22;11664;49.774;8.650;2023-04-24T14:19:56;14.50;99.90
22996;DHT22;11664;49.774;8.650;2023-04-24T14:22:22;14.20;99.90
22996;DHT22;11664;49.774;8.650;2023-04-24T14:24:48;14.20;99.90
22996;DHT22;11664;49.774;8.650;2023-04-24T14:27:13;14.00;99.90
22996;DHT22;11664;49.774;8.650;2023-04-24T14:29:39;13.90;99.90
22996;DHT22;11664;49.774;8.650;2023-04-24T14:32:04;13.80;99.90
22996;DHT22;11664;49.774;8.650;2023-04-24T14:34:30;13.70;99.90
22996;DHT22;11664;49.774;8.650;2023-04-24T14:36:56;13.70;99.90
22996;DHT22;11664;49.774;8.650;2023-04-24T14:39:21;13.70;99.90
22996;DHT22;11664;49.774;8.650;2023-04-24T14:41:47;13.70;99.90
22996;DHT22;11664;49.774;8.650;2023-04-24T14:44:12;13.60;99.90
22996;DHT22;11664;49.774;8.650;2023-04-24T14:46:38;13.50;99.90
22996;DHT22;11664;49.774;8.650;2023-04-24T14:49:03;13.60;99.90
22996;DHT22;11664;49.774;8.650;2023-04-24T14:51:29;13.60;99.90
22996;DHT22;11664;49.774;8.650;2023-04-24T14:53:56;13.60;99.90
22996;DHT22;11664;49.774;8.650;2023-04-24T14:56:22;13.40;99.90
22996;DHT22;11664;49.774;8.650;2023-04-24T14:58:48;13.40;99.90
22996;DHT22;11664;49.774;8.650;2023-04-24T15:01:13;13.30;99.90
22996;DHT22;11664;49.774;8.650;2023-04-24T15:03:39;13.30;99.90
22996;DHT22;11664;49.774;8.650;2023-04-24T15:06:05;13.30;99.90
22996;DHT22;11664;49.774;8.650;2023-04-24T15:08:30;13.20;99.90
22996;DHT22;11664;49.774;8.650;2023-04-24T15:10:56;13.20;99.90
22996;DHT22;11664;49.774;8.650;2023-04-24T15:13:21;13.10;99.90
22996;DHT22;11664;49.774;8.650;2023-04-24T15:15:47;13.00;99.90
22996;DHT22;11664;49.774;8.650;2023-04-24T15:18:13;13.00;99.90
22996;DHT22;11664;49.774;8.650;2023-04-24T15:20:38;13.00;99.90
22996;DHT22;11664;49.774;8.650;2023-04-24T15:23:05;13.00;99.90
22996;DHT22;11664;49.774;8.650;2023-04-24T15:25:31;13.10;99.90
22996;DHT22;11664;49.774;8.650;2023-04-24T15:27:57;13.90;99.90
22996;DHT22;11664;49.774;8.650;2023-04-24T15:30:24;15.30;99.90
22996;DHT22;11664;49.774;8.650;2023-04-24T15:32:49;16.10;99.90
22996;DHT22;11664;49.774;8.650;2023-04-24T15:35:15;16.10;99.90
22996;DHT22;11664;49.774;8.650;2023-04-24T15:37:41;15.80;99.90
22996;DHT22;11664;49.774;8.650;2023-04-24T15:40:07;15.30;99.90